Stations météo

Publicité
Nimes/Courbessac, France (7645): Température de l'air & dewpoint: 14.08.2017 19:00:00 - 20.08.2017 19:00:00 (CEST)Nimes/Courbessac, France (7645): Température de l'air 5cm: 14.08.2017 19:00:00 - 20.08.2017 19:00:00 (CEST)Nimes/Courbessac, France (7645): Température de l'air -20cm: 14.08.2017 19:00:00 - 20.08.2017 19:00:00 (CEST)Nimes/Courbessac, France (7645): Vitesse du vent & gusts: 14.08.2017 19:00:00 - 20.08.2017 19:00:00 (CEST)Nimes/Courbessac, France (7645): Direction du vent: 14.08.2017 19:00:00 - 20.08.2017 19:00:00 (CEST)Nimes/Courbessac, France (7645): reduced air pressure: 14.08.2017 19:00:00 - 20.08.2017 19:00:00 (CEST)Nimes/Courbessac, France (7645): Ensoleillement: 14.08.2017 19:00:00 - 20.08.2017 19:00:00 (CEST)Nimes/Courbessac, France (7645): Quantités de précipitations: 14.08.2017 19:00:00 - 20.08.2017 19:00:00 (CEST)
Date & Time tt [°C] td [°C] tt 5cm [°C] tt -20cm [°C] ff [km/h] ff [knt] fx [km/h] fx [knt] dd ppp [hPa] sd [min] rr [mm]
20.08.2017 19:00:00 28,4 7,6 30,8 29,5 18 10 46 25 N 1018,2 60 0,0
20.08.2017 18:00:00 29,3 7,2 33,2 29,3 20 11 48 26 N 1018,3 60 0,0
20.08.2017 17:00:00 29,6 6,3 34,3 29,0 23 13 48 26 NNE 1018,4 60 0,0
20.08.2017 16:00:00 29,5 5,5 34,3 28,7 28 15 56 30 N 1018,2 60 0,0
20.08.2017 15:00:00 28,7 5,5 34,1 28,5 25 13 50 27 N 1018,9 60 0,0
20.08.2017 14:00:00 27,6 4,6 33,3 28,3 26 14 50 27 N 1019,5 60 0,0
20.08.2017 13:00:00 26,9 5,8 30,0 28,3 20 11 56 30 N 1019,8 60 0,0
20.08.2017 12:00:00 24,3 6,5 28,2 28,3 27 14 62 33 N 1020,2 60 0,0
20.08.2017 11:00:00 23,2 6,5 24,8 28,4 25 14 57 31 N 1021,1 60 0,0
20.08.2017 10:00:00 21,6 6,3 22,3 28,6 29 16 59 32 N 1021,0 60 0,0
20.08.2017 09:00:00 19,8 5,8 19,5 28,8 19 10 37 20 NNW 1021,2 55 0,0
20.08.2017 08:00:00 18,5 6,3 17,2 29,0 16 9 40 21 NNW 1021,0 46 0,0
20.08.2017 07:00:00 17,9 6,4 17,1 29,2 16 9 36 20 NNW 1020,5 0 0,0
20.08.2017 06:00:00 18,4 5,9 17,1 29,5 12 7 26 14 N 1020,6 0 0,0
20.08.2017 05:00:00 18,6 6,1 17,3 29,7 13 7 26 14 N 1020,7 0 0,0
20.08.2017 04:00:00 18,7 6,2 17,2 29,9 10 5 27 15 N 1020,6 0 0,0
20.08.2017 03:00:00 19,5 6,2 18,4 30,1 13 7 31 17 NNW 1020,4 0 0,0
20.08.2017 02:00:00 20,4 6,0 19,6 30,3 18 10 38 20 N 1020,0 0 0,0
20.08.2017 01:00:00 21,0 6,5 20,2 30,5 16 8 41 22 NNW 1020,0 0 0,0
20.08.2017 00:00:00 22,0 6,6 21,1 30,6 21 11 41 22 N 1019,7 0 0,0
19.08.2017 23:00:00 22,3 7,7 21,5 30,7 17 9 40 22 N 1019,7 0 0,0
19.08.2017 22:00:00 22,8 7,3 21,8 30,8 12 6 34 18 NNE 1019,1 0 0,0
19.08.2017 21:00:00 24,0 6,7 23,4 30,7 16 9 37 20 NNE 1018,4 17 0,0
19.08.2017 20:00:00 25,8 6,9 25,8 30,6 21 11 42 23 N 1017,5 39 0,0
19.08.2017 19:00:00 28,5 8,2 30,8 30,5 21 12 39 21 NNE 1016,9 60 0,0
19.08.2017 18:00:00 29,3 8,4 32,9 30,3 23 12 42 23 NE 1016,5 60 0,0
19.08.2017 17:00:00 30,7 9,6 36,3 30,0 21 11 36 20 NNE 1016,6 60 0,0
19.08.2017 16:00:00 32,0 6,9 38,5 29,7 10 5 37 20 N 1016,5 60 0,0
19.08.2017 15:00:00 30,7 7,2 37,5 29,6 15 8 40 22 N 1016,8 60 0,0
19.08.2017 14:00:00 30,0 7,2 33,4 29,4 14 8 42 23 N 1017,3 49 0,0
19.08.2017 13:00:00 28,4 8,1 32,4 29,3 17 9 40 21 N 1017,9 54 0,0
19.08.2017 12:00:00 27,0 9,8 30,3 29,4 15 8 32 18 N 1018,2 60 0,0
19.08.2017 11:00:00 25,0 11,5 27,1 29,5 21 11 42 23 NNW 1018,7 53 0,0
19.08.2017 10:00:00 23,7 12,7 24,8 29,6 23 12 40 22 NNW 1018,8 51 0,0
19.08.2017 09:00:00 22,5 13,8 21,5 29,8 10 5 22 12 NW 1019,1 30 0,0
19.08.2017 08:00:00 21,2 13,6 19,7 30,0 7 4 18 10 N 1018,6 39 0,0
19.08.2017 07:00:00 20,7 13,9 19,8 30,2 10 5 22 12 NNW 1018,2 0 0,0
19.08.2017 06:00:00 21,2 14,1 20,2 30,4 9 5 23 12 NNW 1017,7 0 0,0
19.08.2017 05:00:00 22,0 14,4 20,8 30,6 13 7 23 13 N 1017,3 0 0,0
19.08.2017 04:00:00 22,5 14,9 21,7 30,7 13 7 31 17 N 1017,4 0 0,0
19.08.2017 03:00:00 22,8 14,9 21,9 30,9 8 4 24 13 N 1017,0 0 0,0
19.08.2017 02:00:00 23,5 15,5 23,1 31,1 16 8 32 17 N 1016,7 0 0,0
19.08.2017 01:00:00 24,1 16,4 23,9 31,2 16 9 32 18 N 1016,5 0 0,0
19.08.2017 00:00:00 24,8 16,8 24,4 31,3 18 10 35 19 NNE 1016,0 0 0,0
18.08.2017 23:00:00 24,8 19,8 24,4 31,3 6 4 13 7 N 1016,2 0 0,0
18.08.2017 22:00:00 25,0 20,3 24,7 31,4 6 3 10 5 E 1015,7 0 0,0
18.08.2017 21:00:00 26,0 20,1 25,7 31,3 7 4 18 10 S 1015,1 0 0,0
18.08.2017 20:00:00 28,0 18,4 28,3 31,2 13 7 27 15 S 1014,6 0 0,0
18.08.2017 19:00:00 30,2 15,9 32,3 30,9 18 10 29 16 S 1014,3 42 0,0
18.08.2017 18:00:00 30,8 16,4 32,9 30,6 16 9 31 17 S 1014,5 18 0,0
18.08.2017 17:00:00 32,4 16,7 35,8 30,3 19 11 36 20 S 1014,5 34 0,0
18.08.2017 16:00:00 32,5 15,9 36,5 29,9 22 12 36 19 SSW 1014,9 38 0,0
18.08.2017 15:00:00 33,6 16,0 41,2 29,6 23 12 39 21 S 1014,5 60 0,0
18.08.2017 14:00:00 34,1 15,5 42,3 29,3 17 9 31 17 S 1014,6 60 0,0
18.08.2017 13:00:00 34,1 16,0 40,7 29,2 17 9 40 21 S 1015,0 60 0,0
18.08.2017 12:00:00 33,0 16,4 38,4 29,1 13 7 22 12 SSE 1015,4 60 0,0
18.08.2017 11:00:00 31,5 16,3 34,7 29,1 8 4 19 10 SE 1016,1 60 0,0
18.08.2017 10:00:00 29,8 16,2 31,3 29,3 8 4 15 8 ESE 1016,2 60 0,0
18.08.2017 09:00:00 27,3 16,3 25,6 29,5 9 5 14 8 E 1016,5 60 0,0
18.08.2017 08:00:00 22,4 16,2 17,8 29,7 4 2 8 4 N 1016,6 39 0,0
18.08.2017 07:00:00 19,4 15,1 18,2 29,8 0 0 13 7 N 1016,4 0 0,0
18.08.2017 06:00:00 20,0 15,6 18,9 30,0 6 3 11 6 NNW 1016,4 0 0,0
18.08.2017 05:00:00 20,7 15,9 19,4 30,3 7 4 11 6 NNW 1016,1 0 0,0
18.08.2017 04:00:00 20,8 15,3 19,3 30,4 4 2 9 5 NNW 1016,3 0 0,0
18.08.2017 03:00:00 21,1 14,7 19,2 30,6 5 3 7 4 NNW 1016,2 0 0,0
18.08.2017 02:00:00 21,4 15,0 19,3 30,8 4 2 11 6 NNW 1016,5 0 0,0
18.08.2017 01:00:00 22,8 15,1 21,3 30,9 6 3 10 5 NNW 1016,8 0 0,0
18.08.2017 00:00:00 23,7 15,5 21,3 31,0 2 1 6 3 WNW 1016,8 0 0,0
17.08.2017 23:00:00 25,2 15,2 23,5 31,0 3 1 14 8 E 1016,8 0 0,0
17.08.2017 22:00:00 27,7 15,7 26,2 31,0 6 3 13 7 SW 1016,8 0 0,0
17.08.2017 21:00:00 29,0 16,2 28,1 30,9 9 5 18 10 SW 1016,4 17 0,0
17.08.2017 20:00:00 31,3 15,7 31,7 30,7 11 6 26 14 SSW 1016,0 60 0,0
17.08.2017 19:00:00 32,6 15,6 36,0 30,4 15 8 29 16 SW 1015,7 60 0,0
17.08.2017 18:00:00 34,0 15,9 39,2 30,0 16 9 29 16 SW 1015,7 60 0,0
17.08.2017 17:00:00 34,9 16,2 41,8 29,7 18 10 35 19 SSW 1015,7 60 0,0
17.08.2017 16:00:00 36,8 12,3 44,8 29,3 8 4 20 11 W 1015,9 60 0,0
17.08.2017 15:00:00 35,8 11,4 44,0 29,0 11 6 22 12 NNW 1016,5 60 0,0
17.08.2017 14:00:00 34,5 15,4 41,7 28,7 9 5 27 14 WSW 1017,0 60 0,0
17.08.2017 13:00:00 33,2 16,1 40,8 28,5 9 5 19 10 NW 1017,5 60 0,0
17.08.2017 12:00:00 32,4 17,1 37,1 28,4 9 5 24 13 N 1018,0 60 0,0
17.08.2017 11:00:00 30,2 17,0 32,7 28,4 14 8 31 17 N 1018,4 60 0,0
17.08.2017 10:00:00 28,1 17,0 29,1 28,5 15 8 33 18 N 1018,5 60 0,0
17.08.2017 09:00:00 26,0 16,5 25,6 28,7 10 6 24 13 N 1018,3 45 0,0
17.08.2017 08:00:00 22,8 16,3 18,1 28,8 0 0 10 6 N 1018,4 41 0,0
17.08.2017 07:00:00 20,3 15,5 17,7 29,0 4 2 7 4 N 1018,1 0 0,0
17.08.2017 06:00:00 20,3 14,9 18,4 29,1 2 1 6 4 S 1017,7 0 0,0
17.08.2017 05:00:00 22,5 15,3 20,7 29,3 4 2 18 10 N 1017,3 0 0,0
17.08.2017 04:00:00 23,4 15,4 21,8 29,5 10 6 21 11 NNW 1017,6 0 0,0
17.08.2017 03:00:00 23,1 14,6 21,9 29,6 7 4 16 9 N 1017,6 0 0,0
17.08.2017 02:00:00 23,8 14,8 22,4 29,7 8 4 16 9 N 1017,9 0 0,0
17.08.2017 01:00:00 23,3 14,8 19,6 29,9 9 5 13 7 NNW 1018,2 0 0,0
17.08.2017 00:00:00 22,5 14,6 20,9 29,9 4 2 7 4 NW 1018,1 0 0,0
16.08.2017 23:00:00 23,5 14,8 21,4 30,0 4 2 7 4 NNW 1018,3 0 0,0
16.08.2017 22:00:00 24,6 15,0 22,4 29,9 0 0 11 6 N 1018,2 0 0,0
16.08.2017 21:00:00 28,1 15,4 26,8 29,9 7 4 14 8 SSW 1017,6 19 0,0
16.08.2017 20:00:00 30,5 15,4 30,9 29,7 7 4 16 9 SW 1017,0 30 0,0
16.08.2017 19:00:00 31,3 15,3 34,2 29,6 11 6 20 11 SW 1016,7 30 0,0
16.08.2017 18:00:00 34,5 12,2 39,6 29,4 8 4 27 14 ESE 1016,8 60 0,0
16.08.2017 17:00:00 33,9 12,8 37,6 29,2 4 2 18 10 E 1016,9 45 0,0
16.08.2017 16:00:00 34,4 13,3 36,0 29,0 13 7 24 13 E 1017,2 30 0,0
16.08.2017 15:00:00 31,4 14,5 33,1 28,8 6 4 20 11 NE 1018,0 0 0,0
16.08.2017 14:00:00 30,8 14,4 33,7 28,7 10 5 17 9 NNE 1017,8 0 0,0
16.08.2017 13:00:00 30,4 14,5 33,8 28,5 9 5 17 9 NW 1018,3 13 0,0
16.08.2017 12:00:00 30,6 15,5 36,2 28,4 4 2 17 9 N 1018,6 54 0,0
16.08.2017 11:00:00 28,5 15,8 31,3 28,5 9 5 19 10 N 1019,1 60 0,0
16.08.2017 10:00:00 26,3 15,7 26,9 28,7 9 5 19 10 N 1019,2 60 0,0
16.08.2017 09:00:00 23,2 14,5 22,3 28,8 10 5 16 8 N 1019,7 60 0,0
16.08.2017 08:00:00 20,5 12,5 17,3 29,1 3 2 14 7 ENE 1019,4 50 0,0
16.08.2017 07:00:00 17,9 12,1 14,7 29,3 8 5 13 7 NNW 1019,5 0 0,0
16.08.2017 06:00:00 17,1 11,6 15,1 29,5 0 0 9 5 N 1019,3 0 0,0
16.08.2017 05:00:00 18,7 12,2 16,7 29,7 5 3 16 8 N 1018,8 0 0,0
16.08.2017 04:00:00 19,0 12,0 17,2 29,9 10 5 17 9 NNW 1019,4 0 0,0
16.08.2017 03:00:00 19,1 11,9 17,8 30,1 7 4 17 9 NNW 1020,0 0 0,0
16.08.2017 02:00:00 19,4 12,6 17,8 30,3 7 4 10 5 NNW 1020,4 0 0,0
16.08.2017 01:00:00 19,7 12,7 18,4 30,4 0 0 4 2 N 1020,5 0 0,0
16.08.2017 00:00:00 20,3 13,0 18,6 30,6 3 2 8 4 N 1020,4 0 0,0
15.08.2017 23:00:00 22,2 14,1 20,5 30,6 6 3 13 7 NNW 1020,6 0 0,0
15.08.2017 22:00:00 22,7 14,0 21,7 30,6 9 5 15 8 S 1020,4 0 0,0
15.08.2017 21:00:00 23,1 11,8 21,7 30,6 6 3 18 10 SSE 1019,4 15 0,0
15.08.2017 20:00:00 26,3 11,2 27,4 30,4 9 5 25 14 S 1018,8 45 0,0
15.08.2017 19:00:00 27,3 10,9 29,0 30,2 16 9 32 17 SSW 1019,2 32 0,0
15.08.2017 18:00:00 29,7 11,2 32,7 29,9 19 11 32 17 S 1019,5 43 0,0
15.08.2017 17:00:00 31,6 13,8 37,7 29,6 16 9 28 15 S 1018,9 57 0,0
15.08.2017 16:00:00 32,1 14,3 39,7 29,3 14 7 28 15 S 1018,7 60 0,0
15.08.2017 15:00:00 31,4 12,2 38,4 29,1 17 9 28 15 S 1019,0 60 0,0
15.08.2017 14:00:00 30,7 13,0 38,4 28,9 11 6 23 13 SSE 1019,3 57 0,0
15.08.2017 13:00:00 29,7 14,7 31,3 28,7 7 4 24 13 E 1019,8 29 0,0
15.08.2017 12:00:00 27,3 15,6 31,0 28,7 8 5 18 10 SE 1020,4 30 0,0
15.08.2017 11:00:00 27,5 17,1 28,4 28,7 8 4 14 8 E 1020,9 40 0,0
15.08.2017 10:00:00 25,8 18,0 27,2 28,8 9 5 18 10 E 1020,9 60 0,0
15.08.2017 09:00:00 23,0 17,9 20,8 28,9 6 4 12 7 E 1021,3 43 0,0
15.08.2017 08:00:00 19,7 18,0 19,5 29,1 0 0 8 5 N 1021,2 0 0,0
15.08.2017 07:00:00 18,9 17,9 19,1 29,2 3 1 11 6 NW 1020,9 0 0,0
15.08.2017 06:00:00 18,7 17,5 19,0 29,3 2 1 10 5 N 1020,4 0 0,0
15.08.2017 05:00:00 19,5 18,2 19,7 29,5 5 3 9 5 NNE 1020,0 0 0,0
15.08.2017 04:00:00 19,6 18,3 18,6 29,7 2 1 9 5 NE 1020,2 0 0,0
15.08.2017 03:00:00 19,1 17,8 18,0 29,9 3 2 10 5 E 1020,4 0 0,0
15.08.2017 02:00:00 20,1 18,4 18,7 30,0 4 2 7 4 ENE 1020,7 0 0,0
15.08.2017 01:00:00 19,9 18,0 19,2 30,2 4 2 7 4 ENE 1020,5 0 0,0
15.08.2017 00:00:00 20,4 17,6 19,9 30,3 5 3 11 6 ESE 1020,6 0 0,0
14.08.2017 23:00:00 21,6 18,8 20,6 30,3 7 4 15 8 S 1020,5 0 0,0
14.08.2017 22:00:00 21,7 17,7 20,8 30,4 6 4 17 9 S 1020,1 0 0,0
14.08.2017 21:00:00 22,9 15,0 22,3 30,3 12 6 18 10 SSE 1019,3 25 0,0
14.08.2017 20:00:00 25,7 11,5 26,2 30,1 15 8 27 15 SSE 1018,7 60 0,0
14.08.2017 19:00:00 27,4 10,1 30,5 29,9 19 10 29 16 S 1018,5 60 0,0

tt = Température de l'air
td = dewpoint
tt 5cm = Température de l'air 5cm
tt -20cm = Température de l'air -20cm
ff = Vitesse du vent
fx = gusts
dd = Direction du vent
ppp = reduced air pressure
sd = Ensoleillement
rr = Quantités de précipitations

stations d'obs. à proximité